Time;durP1;ratioP1;P1;durP2;ratioP2;P2;SDS_P1;SDS_P2;PMS_P1;PMS_P2;Temp;Humidity;BMP_temperature;BMP_pressure;BME280_temperature;BME280_humidity;BME280_pressure;Samples;Min_cycle;Max_cycle;Signal;HPM_P1;HPM_P2
2023/11/22 00:00:13;;;;;;;2.80;2.40;;;;;;;;;;522540;28;1400;-74
2023/11/22 00:00:28;;;;;;;2.80;2.30;;;;;;;;;;522012;28;1260;-73
2023/11/22 00:00:44;;;;;;;3.00;2.30;;;;;;;;;;521151;28;1856;-74
2023/11/22 00:00:59;;;;;;;3.42;2.47;;;;;;;;;;522667;28;1057;-74
2023/11/22 00:01:14;;;;;;;3.03;2.50;;;;;;;;;;522467;28;830;-74
2023/11/22 00:01:30;;;;;;;2.80;2.40;;;;;;;;;;523844;28;784;-74
2023/11/22 00:01:49;;;;;;;2.80;2.30;;;;;;;;;;523844;28;831;-74
2023/11/22 00:02:04;;;;;;;2.50;2.30;;;;;;;;;;521717;28;1366;-75
2023/11/22 00:02:20;;;;;;;2.50;2.30;;;;;;;;;;522577;28;1029;-74
2023/11/22 00:02:35;;;;;;;2.50;2.30;;;;;;;;;;524558;28;788;-73
2023/11/22 00:02:51;;;;;;;2.83;2.37;;;;;;;;;;526003;28;996;-74
2023/11/22 00:03:06;;;;;;;3.10;2.40;;;;;;;;;;525803;28;846;-74
2023/11/22 00:03:23;;;;;;;2.78;2.22;;;;;;;;;;525947;28;1130;-74
2023/11/22 00:03:39;;;;;;;2.38;2.10;;;;;;;;;;525878;28;939;-74
2023/11/22 00:03:54;;;;;;;2.40;2.20;;;;;;;;;;525991;28;1927;-74
2023/11/22 00:04:09;;;;;;;3.03;2.30;;;;;;;;;;528197;28;984;-74
2023/11/22 00:04:25;;;;;;;3.30;2.30;;;;;;;;;;525761;28;1313;-73
2023/11/22 00:04:40;;;;;;;2.53;2.10;;;;;;;;;;525918;28;803;-74
2023/11/22 00:04:55;;;;;;;2.47;2.20;;;;;;;;;;526000;28;976;-74
2023/11/22 00:05:11;;;;;;;2.88;2.58;;;;;;;;;;523566;28;1179;-74
2023/11/22 00:05:26;;;;;;;3.07;2.70;;;;;;;;;;523696;28;1260;-74
2023/11/22 00:05:41;;;;;;;2.83;2.40;;;;;;;;;;522645;28;1820;-74
2023/11/22 00:05:57;;;;;;;2.72;2.28;;;;;;;;;;523656;28;1013;-74
2023/11/22 00:06:12;;;;;;;3.03;2.47;;;;;;;;;;523832;28;1056;-74
2023/11/22 00:06:29;;;;;;;2.93;2.40;;;;;;;;;;525988;28;1060;-74
2023/11/22 00:06:45;;;;;;;2.75;2.30;;;;;;;;;;525110;28;964;-74
2023/11/22 00:07:00;;;;;;;2.60;2.27;;;;;;;;;;524370;28;957;-74
2023/11/22 00:07:16;;;;;;;2.60;2.20;;;;;;;;;;526441;28;1231;-74
2023/11/22 00:07:32;;;;;;;3.00;2.20;;;;;;;;;;528232;28;807;-74
2023/11/22 00:07:47;;;;;;;2.88;2.33;;;;;;;;;;527537;28;1107;-74
2023/11/22 00:08:03;;;;;;;2.47;2.20;;;;;;;;;;525864;28;2314;-74
2023/11/22 00:08:18;;;;;;;2.50;2.20;;;;;;;;;;525371;28;1760;-74
2023/11/22 00:08:34;;;;;;;3.97;2.50;;;;;;;;;;524821;28;1775;-74
2023/11/22 00:08:49;;;;;;;3.88;2.53;;;;;;;;;;523416;28;874;-74
2023/11/22 00:09:05;;;;;;;2.47;2.22;;;;;;;;;;523896;28;1171;-74
2023/11/22 00:09:22;;;;;;;2.40;2.20;;;;;;;;;;524823;28;1076;-75
2023/11/22 00:09:38;;;;;;;2.63;2.30;;;;;;;;;;525843;28;890;-74
2023/11/22 00:09:53;;;;;;;3.03;2.30;;;;;;;;;;526152;28;798;-74
2023/11/22 00:10:08;;;;;;;3.30;2.43;;;;;;;;;;525839;28;989;-74
2023/11/22 00:10:24;;;;;;;2.65;2.35;;;;;;;;;;523711;28;1456;-74
2023/11/22 00:10:39;;;;;;;2.73;2.30;;;;;;;;;;521647;28;1143;-74
2023/11/22 00:10:54;;;;;;;3.50;2.50;;;;;;;;;;522295;28;826;-74
2023/11/22 00:11:10;;;;;;;3.40;2.60;;;;;;;;;;523053;28;1647;-74
2023/11/22 00:11:25;;;;;;;3.07;2.60;;;;;;;;;;523680;28;1207;-73
2023/11/22 00:11:40;;;;;;;3.10;2.60;;;;;;;;;;523742;28;1052;-74
2023/11/22 00:11:56;;;;;;;5.35;2.70;;;;;;;;;;523956;28;866;-74
2023/11/22 00:12:11;;;;;;;5.63;2.67;;;;;;;;;;523292;28;843;-74
2023/11/22 00:12:27;;;;;;;3.07;2.50;;;;;;;;;;524067;28;929;-74
2023/11/22 00:12:42;;;;;;;2.60;2.40;;;;;;;;;;526183;28;862;-74
2023/11/22 00:12:58;;;;;;;2.90;2.60;;;;;;;;;;526116;28;918;-74
2023/11/22 00:13:14;;;;;;;2.90;2.60;;;;;;;;;;527022;28;830;-74
2023/11/22 00:13:29;;;;;;;2.60;2.40;;;;;;;;;;527946;28;931;-74
2023/11/22 00:13:45;;;;;;;2.50;2.30;;;;;;;;;;525318;28;1331;-73
2023/11/22 00:14:00;;;;;;;2.73;2.47;;;;;;;;;;525772;28;827;-73
2023/11/22 00:14:16;;;;;;;3.15;2.65;;;;;;;;;;521626;28;1399;-74
2023/11/22 00:14:31;;;;;;;3.00;2.60;;;;;;;;;;520564;28;1951;-74
2023/11/22 00:14:47;;;;;;;2.60;2.40;;;;;;;;;;523769;28;1247;-73
2023/11/22 00:15:06;;;;;;;2.97;2.50;;;;;;;;;;523695;28;889;-74
2023/11/22 00:15:21;;;;;;;2.88;2.58;;;;;;;;;;523178;28;1068;-74
2023/11/22 00:15:37;;;;;;;2.88;2.47;;;;;;;;;;522178;28;831;-74
2023/11/22 00:15:52;;;;;;;3.20;2.35;;;;;;;;;;523861;28;989;-74
2023/11/22 00:16:09;;;;;;;2.90;2.33;;;;;;;;;;524224;28;1834;-74
2023/11/22 00:16:24;;;;;;;2.80;2.50;;;;;;;;;;526474;28;980;-73
2023/11/22 00:16:40;;;;;;;2.92;2.45;;;;;;;;;;526023;28;926;-74
2023/11/22 00:16:55;;;;;;;2.88;2.40;;;;;;;;;;528319;28;829;-74
2023/11/22 00:17:10;;;;;;;2.83;2.40;;;;;;;;;;525718;28;1263;-74
2023/11/22 00:17:26;;;;;;;3.43;2.40;;;;;;;;;;526308;28;965;-74
2023/11/22 00:17:41;;;;;;;3.23;2.40;;;;;;;;;;527492;28;1112;-74
2023/11/22 00:18:03;;;;;;;3.38;2.50;;;;;;;;;;528146;28;822;-74
2023/11/22 00:18:18;;;;;;;3.10;2.38;;;;;;;;;;525986;28;1011;-73
2023/11/22 00:18:37;;;;;;;2.50;2.30;;;;;;;;;;525834;28;818;-74
2023/11/22 00:18:52;;;;;;;2.92;2.40;;;;;;;;;;525251;28;944;-73
2023/11/22 00:19:07;;;;;;;3.20;2.43;;;;;;;;;;527076;28;937;-73
2023/11/22 00:19:23;;;;;;;2.97;2.30;;;;;;;;;;527881;28;794;-74
2023/11/22 00:19:38;;;;;;;2.88;2.30;;;;;;;;;;527671;28;893;-74
2023/11/22 00:19:53;;;;;;;2.70;2.30;;;;;;;;;;527662;28;806;-74
2023/11/22 00:20:09;;;;;;;3.10;2.20;;;;;;;;;;525593;28;1379;-74
2023/11/22 00:20:25;;;;;;;3.22;2.25;;;;;;;;;;525606;28;878;-73
2023/11/22 00:20:40;;;;;;;2.50;2.30;;;;;;;;;;526018;28;1092;-73
2023/11/22 00:20:55;;;;;;;2.40;2.17;;;;;;;;;;524958;28;1701;-74
2023/11/22 00:21:11;;;;;;;2.57;2.20;;;;;;;;;;525855;28;846;-73
2023/11/22 00:21:26;;;;;;;2.47;2.20;;;;;;;;;;523619;28;862;-74
2023/11/22 00:21:41;;;;;;;2.80;2.33;;;;;;;;;;523774;28;830;-74
2023/11/22 00:21:57;;;;;;;3.00;2.50;;;;;;;;;;521774;28;824;-73
2023/11/22 00:22:15;;;;;;;3.28;2.40;;;;;;;;;;521798;28;1273;-73
2023/11/22 00:22:32;;;;;;;4.05;2.40;;;;;;;;;;523918;28;966;-74
2023/11/22 00:22:47;;;;;;;3.53;2.35;;;;;;;;;;523916;28;909;-75
2023/11/22 00:23:05;;;;;;;2.73;2.43;;;;;;;;;;523809;28;870;-75
2023/11/22 00:23:20;;;;;;;3.25;2.60;;;;;;;;;;523719;28;1059;-74
2023/11/22 00:23:36;;;;;;;2.93;2.40;;;;;;;;;;523484;28;1611;-74
2023/11/22 00:23:51;;;;;;;2.70;2.40;;;;;;;;;;524359;28;1977;-74
2023/11/22 00:24:07;;;;;;;2.93;2.53;;;;;;;;;;524190;28;879;-74
2023/11/22 00:24:22;;;;;;;2.97;2.53;;;;;;;;;;521165;28;2061;-74
2023/11/22 00:24:37;;;;;;;2.80;2.40;;;;;;;;;;521554;28;1120;-74
2023/11/22 00:24:53;;;;;;;2.90;2.43;;;;;;;;;;523833;28;1777;-74
2023/11/22 00:25:09;;;;;;;2.90;2.55;;;;;;;;;;523467;28;1508;-73
2023/11/22 00:25:24;;;;;;;3.00;2.53;;;;;;;;;;524795;28;941;-74
2023/11/22 00:25:39;;;;;;;3.03;2.43;;;;;;;;;;522232;28;1308;-74
2023/11/22 00:25:56;;;;;;;3.05;2.55;;;;;;;;;;521802;28;807;-74
2023/11/22 00:26:12;;;;;;;3.60;2.70;;;;;;;;;;519335;28;1814;-74
2023/11/22 00:26:27;;;;;;;3.20;2.55;;;;;;;;;;520215;28;1010;-74
2023/11/22 00:26:42;;;;;;;2.63;2.40;;;;;;;;;;521084;28;875;-74
2023/11/22 00:26:58;;;;;;;2.83;2.43;;;;;;;;;;522162;28;851;-74
2023/11/22 00:27:15;;;;;;;2.90;2.47;;;;;;;;;;523945;28;984;-74
2023/11/22 00:27:34;;;;;;;3.08;2.40;;;;;;;;;;525159;28;923;-74
2023/11/22 00:27:49;;;;;;;3.15;2.40;;;;;;;;;;525989;28;800;-73
2023/11/22 00:28:06;;;;;;;2.70;2.37;;;;;;;;;;526811;28;866;-74
2023/11/22 00:28:22;;;;;;;3.10;2.53;;;;;;;;;;528896;28;1054;-74
2023/11/22 00:28:37;;;;;;;3.28;2.58;;;;;;;;;;528271;28;854;-74
2023/11/22 00:28:53;;;;;;;3.10;2.55;;;;;;;;;;530017;28;857;-74
2023/11/22 00:29:09;;;;;;;3.15;2.70;;;;;;;;;;530264;28;858;-74
2023/11/22 00:29:24;;;;;;;3.50;2.60;;;;;;;;;;529927;28;1165;-74
2023/11/22 00:29:40;;;;;;;3.23;2.60;;;;;;;;;;523593;28;1641;-74
2023/11/22 00:29:55;;;;;;;2.80;2.47;;;;;;;;;;523848;28;858;-74
2023/11/22 00:30:11;;;;;;;2.50;2.30;;;;;;;;;;525657;28;1828;-74
2023/11/22 00:30:26;;;;;;;3.20;2.55;;;;;;;;;;523138;28;1242;-74
2023/11/22 00:30:42;;;;;;;3.30;2.60;;;;;;;;;;524449;28;1254;-74
2023/11/22 00:30:58;;;;;;;2.70;2.50;;;;;;;;;;525842;28;1350;-74
2023/11/22 00:31:14;;;;;;;2.90;2.60;;;;;;;;;;525576;28;1155;-74
2023/11/22 00:31:29;;;;;;;2.95;2.65;;;;;;;;;;522052;28;1255;-74
2023/11/22 00:31:45;;;;;;;2.90;2.65;;;;;;;;;;521581;28;1148;-74
2023/11/22 00:32:00;;;;;;;2.80;2.60;;;;;;;;;;521775;28;850;-74
2023/11/22 00:32:15;;;;;;;3.10;2.80;;;;;;;;;;522016;28;1088;-73
2023/11/22 00:32:31;;;;;;;3.10;2.63;;;;;;;;;;521710;28;1286;-74
2023/11/22 00:32:46;;;;;;;3.70;2.45;;;;;;;;;;521622;28;807;-74
2023/11/22 00:33:01;;;;;;;3.53;2.50;;;;;;;;;;521803;28;823;-74
2023/11/22 00:33:19;;;;;;;2.67;2.40;;;;;;;;;;521992;28;1491;-74
2023/11/22 00:33:35;;;;;;;2.88;2.45;;;;;;;;;;521460;28;1852;-74
2023/11/22 00:33:51;;;;;;;3.67;2.70;;;;;;;;;;521224;28;1328;-74
2023/11/22 00:34:06;;;;;;;3.53;2.80;;;;;;;;;;521180;28;1236;-74
2023/11/22 00:34:23;;;;;;;3.22;2.85;;;;;;;;;;522913;28;1342;-73
2023/11/22 00:34:38;;;;;;;3.03;2.70;;;;;;;;;;522030;28;1672;-74
2023/11/22 00:34:53;;;;;;;3.00;2.57;;;;;;;;;;523772;28;835;-74
2023/11/22 00:35:09;;;;;;;3.40;2.53;;;;;;;;;;523770;28;882;-74
2023/11/22 00:35:24;;;;;;;3.30;2.50;;;;;;;;;;523728;28;1248;-74
2023/11/22 00:35:39;;;;;;;3.47;2.37;;;;;;;;;;526212;28;1000;-74
2023/11/22 00:35:56;;;;;;;3.28;2.42;;;;;;;;;;528098;28;882;-74
2023/11/22 00:36:11;;;;;;;2.90;2.50;;;;;;;;;;527917;28;1062;-74
2023/11/22 00:36:27;;;;;;;2.80;2.50;;;;;;;;;;525627;28;1238;-74
2023/11/22 00:36:42;;;;;;;2.70;2.50;;;;;;;;;;523736;28;1176;-73
2023/11/22 00:36:57;;;;;;;2.53;2.33;;;;;;;;;;523584;28;1150;-74
2023/11/22 00:37:13;;;;;;;2.55;2.30;;;;;;;;;;523368;28;1128;-73
2023/11/22 00:37:28;;;;;;;2.57;2.37;;;;;;;;;;519519;28;1168;-74
2023/11/22 00:37:43;;;;;;;2.60;2.40;;;;;;;;;;519732;28;934;-73
2023/11/22 00:37:59;;;;;;;2.90;2.40;;;;;;;;;;519621;28;1137;-73
2023/11/22 00:38:14;;;;;;;2.90;2.30;;;;;;;;;;520125;28;1166;-73
2023/11/22 00:38:30;;;;;;;2.60;2.30;;;;;;;;;;521027;28;1362;-73
2023/11/22 00:38:45;;;;;;;2.60;2.40;;;;;;;;;;518835;28;1530;-74
2023/11/22 00:39:00;;;;;;;2.73;2.50;;;;;;;;;;519315;28;1716;-74
2023/11/22 00:39:16;;;;;;;2.57;2.37;;;;;;;;;;518994;28;1112;-74
2023/11/22 00:39:31;;;;;;;2.67;2.30;;;;;;;;;;522469;28;1872;-74
2023/11/22 00:39:47;;;;;;;2.67;2.30;;;;;;;;;;522055;28;857;-74
2023/11/22 00:40:13;;;;;;;2.70;2.47;;;;;;;;;;523752;28;963;-74
2023/11/22 00:40:28;;;;;;;3.33;2.67;;;;;;;;;;523407;28;882;-74
2023/11/22 00:40:43;;;;;;;3.28;2.50;;;;;;;;;;525042;28;1345;-74
2023/11/22 00:40:59;;;;;;;3.10;2.57;;;;;;;;;;525914;28;795;-74
2023/11/22 00:41:15;;;;;;;3.17;2.70;;;;;;;;;;526244;28;1107;-73
2023/11/22 00:41:31;;;;;;;2.97;2.60;;;;;;;;;;526454;28;1099;-74
2023/11/22 00:41:47;;;;;;;2.92;2.53;;;;;;;;;;524424;28;890;-73
2023/11/22 00:42:03;;;;;;;3.20;2.60;;;;;;;;;;521798;28;1243;-74
2023/11/22 00:42:20;;;;;;;3.22;2.50;;;;;;;;;;523387;28;1095;-74
2023/11/22 00:42:35;;;;;;;2.95;2.40;;;;;;;;;;524625;28;1744;-74
2023/11/22 00:42:50;;;;;;;2.50;2.30;;;;;;;;;;525673;28;921;-73
2023/11/22 00:43:06;;;;;;;2.60;2.40;;;;;;;;;;525905;28;917;-74
2023/11/22 00:43:21;;;;;;;3.22;2.58;;;;;;;;;;525709;28;1214;-74
2023/11/22 00:43:37;;;;;;;3.30;2.47;;;;;;;;;;525764;28;822;-74
2023/11/22 00:43:52;;;;;;;2.50;2.30;;;;;;;;;;525155;28;1950;-74
2023/11/22 00:44:07;;;;;;;2.60;2.40;;;;;;;;;;523818;28;755;-74
2023/11/22 00:44:23;;;;;;;2.80;2.53;;;;;;;;;;525351;28;831;-74
2023/11/22 00:44:38;;;;;;;3.00;2.70;;;;;;;;;;528049;28;839;-74
2023/11/22 00:44:53;;;;;;;2.93;2.60;;;;;;;;;;527878;28;977;-74
2023/11/22 00:45:10;;;;;;;3.07;2.53;;;;;;;;;;525193;28;1792;-73
2023/11/22 00:45:25;;;;;;;3.15;2.55;;;;;;;;;;526077;28;1114;-73
2023/11/22 00:45:40;;;;;;;3.20;2.67;;;;;;;;;;524304;28;810;-74
2023/11/22 00:45:57;;;;;;;2.90;2.47;;;;;;;;;;524161;28;902;-74
2023/11/22 00:46:12;;;;;;;2.60;2.40;;;;;;;;;;527313;28;866;-74
2023/11/22 00:46:27;;;;;;;2.67;2.47;;;;;;;;;;530352;28;922;-73
2023/11/22 00:46:42;;;;;;;2.70;2.50;;;;;;;;;;530278;28;945;-74
2023/11/22 00:46:58;;;;;;;2.60;2.40;;;;;;;;;;527821;28;1314;-74
2023/11/22 00:47:13;;;;;;;2.45;2.25;;;;;;;;;;526980;28;1151;-74
2023/11/22 00:47:28;;;;;;;2.23;2.03;;;;;;;;;;524397;28;1554;-74
2023/11/22 00:47:44;;;;;;;2.30;2.10;;;;;;;;;;522057;28;1248;-74
2023/11/22 00:47:59;;;;;;;2.47;2.28;;;;;;;;;;524163;28;961;-74
2023/11/22 00:48:14;;;;;;;2.80;2.47;;;;;;;;;;524112;28;874;-74
2023/11/22 00:48:30;;;;;;;2.67;2.40;;;;;;;;;;524273;28;870;-74
2023/11/22 00:48:45;;;;;;;2.50;2.30;;;;;;;;;;524009;28;926;-74
2023/11/22 00:49:00;;;;;;;2.47;2.27;;;;;;;;;;522501;28;1816;-74
2023/11/22 00:49:15;;;;;;;2.93;2.30;;;;;;;;;;521388;28;1705;-74
2023/11/22 00:49:31;;;;;;;3.47;2.33;;;;;;;;;;522047;28;862;-74
2023/11/22 00:49:46;;;;;;;2.97;2.30;;;;;;;;;;523188;28;978;-74
2023/11/22 00:50:03;;;;;;;2.60;2.30;;;;;;;;;;522810;28;930;-74
2023/11/22 00:50:20;;;;;;;2.95;2.40;;;;;;;;;;524181;28;974;-74
2023/11/22 00:50:35;;;;;;;2.80;2.40;;;;;;;;;;526393;28;882;-74
2023/11/22 00:50:50;;;;;;;2.50;2.30;;;;;;;;;;526998;28;850;-74
2023/11/22 00:51:08;;;;;;;2.40;2.20;;;;;;;;;;526972;28;894;-74
2023/11/22 00:51:24;;;;;;;2.40;2.20;;;;;;;;;;528569;27;1028;-74
2023/11/22 00:51:39;;;;;;;2.85;2.30;;;;;;;;;;526106;28;1407;-74
2023/11/22 00:51:54;;;;;;;3.10;2.43;;;;;;;;;;526401;28;882;-74
2023/11/22 00:52:10;;;;;;;2.93;2.50;;;;;;;;;;524103;28;1231;-74
2023/11/22 00:52:25;;;;;;;2.75;2.42;;;;;;;;;;525869;28;1131;-74
2023/11/22 00:52:44;;;;;;;2.90;2.33;;;;;;;;;;526233;28;917;-74
2023/11/22 00:52:59;;;;;;;3.08;2.40;;;;;;;;;;525578;28;1005;-74
2023/11/22 00:53:15;;;;;;;3.20;2.40;;;;;;;;;;524434;28;1071;-74
2023/11/22 00:53:30;;;;;;;2.72;2.30;;;;;;;;;;526234;28;1885;-74
2023/11/22 00:53:45;;;;;;;3.07;2.40;;;;;;;;;;525616;28;961;-73
2023/11/22 00:54:00;;;;;;;3.40;2.50;;;;;;;;;;524627;28;1284;-74
2023/11/22 00:54:16;;;;;;;3.40;2.38;;;;;;;;;;524065;28;1251;-74
2023/11/22 00:54:32;;;;;;;3.17;2.40;;;;;;;;;;523701;28;1801;-73
2023/11/22 00:54:47;;;;;;;3.20;2.40;;;;;;;;;;523413;28;942;-74
2023/11/22 00:55:02;;;;;;;3.07;2.40;;;;;;;;;;524205;28;1056;-74
2023/11/22 00:55:18;;;;;;;2.87;2.40;;;;;;;;;;522655;28;1223;-74
2023/11/22 00:55:34;;;;;;;2.80;2.33;;;;;;;;;;524202;28;1017;-74
2023/11/22 00:55:49;;;;;;;2.60;2.30;;;;;;;;;;522891;28;858;-74
2023/11/22 00:56:06;;;;;;;2.77;2.30;;;;;;;;;;522212;28;1152;-74
2023/11/22 00:56:21;;;;;;;2.63;2.30;;;;;;;;;;525508;28;1067;-74
2023/11/22 00:56:36;;;;;;;3.57;2.37;;;;;;;;;;526341;28;949;-74
2023/11/22 00:56:51;;;;;;;3.90;2.50;;;;;;;;;;526372;28;889;-74
2023/11/22 00:57:07;;;;;;;2.95;2.45;;;;;;;;;;526863;28;1039;-74
2023/11/22 00:57:23;;;;;;;2.60;2.37;;;;;;;;;;528128;28;1270;-74
2023/11/22 00:57:38;;;;;;;2.40;2.17;;;;;;;;;;528263;28;806;-73
2023/11/22 00:57:53;;;;;;;2.40;2.03;;;;;;;;;;528858;27;857;-73
2023/11/22 00:58:09;;;;;;;2.60;2.10;;;;;;;;;;530744;27;984;-74
2023/11/22 00:58:24;;;;;;;2.57;2.30;;;;;;;;;;528813;28;1090;-74
2023/11/22 00:58:40;;;;;;;2.50;2.30;;;;;;;;;;528682;27;862;-74
2023/11/22 00:58:57;;;;;;;3.03;2.30;;;;;;;;;;530385;27;1024;-74
2023/11/22 00:59:12;;;;;;;3.53;2.25;;;;;;;;;;530481;27;1054;-73
2023/11/22 00:59:27;;;;;;;2.90;2.20;;;;;;;;;;527192;27;1767;-74
2023/11/22 00:59:43;;;;;;;2.58;2.20;;;;;;;;;;526892;28;1009;-74
2023/11/22 00:59:58;;;;;;;2.77;2.40;;;;;;;;;;527984;28;807;-74
2023/11/22 01:00:15;;;;;;;2.70;2.50;;;;;;;;;;528610;27;1210;-74
2023/11/22 01:00:31;;;;;;;2.80;2.50;;;;;;;;;;529100;27;913;-74
2023/11/22 01:00:46;;;;;;;3.33;2.40;;;;;;;;;;528357;28;827;-74
2023/11/22 01:01:01;;;;;;;3.00;2.17;;;;;;;;;;528503;28;819;-74
2023/11/22 01:01:18;;;;;;;2.30;2.10;;;;;;;;;;528123;28;1083;-73
2023/11/22 01:01:33;;;;;;;2.40;2.20;;;;;;;;;;526913;28;912;-74
2023/11/22 01:01:48;;;;;;;2.70;2.40;;;;;;;;;;526298;28;752;-74
2023/11/22 01:02:05;;;;;;;2.50;2.30;;;;;;;;;;526247;28;898;-74
2023/11/22 01:02:20;;;;;;;2.65;2.17;;;;;;;;;;528854;27;1020;-74
2023/11/22 01:02:39;;;;;;;2.60;2.08;;;;;;;;;;530632;27;921;-73
2023/11/22 01:02:54;;;;;;;2.47;2.20;;;;;;;;;;528430;28;1420;-73
2023/11/22 01:03:11;;;;;;;2.77;2.30;;;;;;;;;;528392;28;964;-74
2023/11/22 01:03:26;;;;;;;2.58;2.38;;;;;;;;;;528286;28;988;-74
2023/11/22 01:03:42;;;;;;;2.70;2.40;;;;;;;;;;526401;28;1498;-74
2023/11/22 01:03:57;;;;;;;2.53;2.20;;;;;;;;;;522947;28;1912;-74
2023/11/22 01:04:13;;;;;;;2.40;2.15;;;;;;;;;;522361;28;1827;-74
2023/11/22 01:04:28;;;;;;;2.43;2.10;;;;;;;;;;524201;28;973;-74
2023/11/22 01:04:43;;;;;;;2.45;2.13;;;;;;;;;;524619;28;1129;-74
2023/11/22 01:04:59;;;;;;;2.43;2.20;;;;;;;;;;526108;28;1036;-73
2023/11/22 01:05:15;;;;;;;2.30;2.10;;;;;;;;;;526509;28;1011;-74
2023/11/22 01:05:30;;;;;;;2.45;2.20;;;;;;;;;;527546;28;1075;-74
2023/11/22 01:05:46;;;;;;;2.93;2.20;;;;;;;;;;525221;28;1151;-74
2023/11/22 01:06:01;;;;;;;2.72;2.08;;;;;;;;;;526036;28;901;-74
2023/11/22 01:06:18;;;;;;;2.60;2.03;;;;;;;;;;525277;28;1087;-74
2023/11/22 01:06:33;;;;;;;2.53;1.90;;;;;;;;;;524186;28;905;-74
2023/11/22 01:06:49;;;;;;;2.67;2.05;;;;;;;;;;523989;28;1713;-73
2023/11/22 01:07:05;;;;;;;2.47;2.20;;;;;;;;;;525679;28;903;-74
2023/11/22 01:07:20;;;;;;;2.50;2.20;;;;;;;;;;525814;28;1060;-74
2023/11/22 01:07:35;;;;;;;2.53;2.23;;;;;;;;;;522240;28;1178;-74
2023/11/22 01:07:50;;;;;;;2.40;2.20;;;;;;;;;;523906;28;1207;-74
2023/11/22 01:08:06;;;;;;;2.43;2.10;;;;;;;;;;524103;28;1013;-73
2023/11/22 01:08:21;;;;;;;2.90;2.20;;;;;;;;;;526682;28;1072;-73
2023/11/22 01:08:37;;;;;;;3.17;2.35;;;;;;;;;;527885;28;1673;-74
2023/11/22 01:08:52;;;;;;;2.77;2.20;;;;;;;;;;522743;28;1032;-74
2023/11/22 01:09:08;;;;;;;2.75;2.20;;;;;;;;;;523906;28;877;-74
2023/11/22 01:09:24;;;;;;;3.13;2.22;;;;;;;;;;525763;28;1083;-74
2023/11/22 01:09:39;;;;;;;2.97;2.27;;;;;;;;;;526558;28;901;-74
2023/11/22 01:09:54;;;;;;;2.65;2.15;;;;;;;;;;526100;28;1171;-73
2023/11/22 01:10:10;;;;;;;3.17;2.10;;;;;;;;;;526345;28;909;-74
2023/11/22 01:10:25;;;;;;;3.00;2.10;;;;;;;;;;525936;28;1141;-73
2023/11/22 01:10:40;;;;;;;2.50;2.15;;;;;;;;;;526674;28;1001;-73
2023/11/22 01:10:57;;;;;;;2.70;2.30;;;;;;;;;;528340;28;833;-73
2023/11/22 01:11:12;;;;;;;2.55;2.28;;;;;;;;;;528246;28;1038;-73
2023/11/22 01:11:27;;;;;;;2.70;2.23;;;;;;;;;;525972;28;1271;-73
2023/11/22 01:11:44;;;;;;;2.60;2.20;;;;;;;;;;524549;28;899;-74
2023/11/22 01:11:59;;;;;;;2.78;2.22;;;;;;;;;;526166;28;1084;-74
2023/11/22 01:12:15;;;;;;;2.72;2.28;;;;;;;;;;524450;28;1087;-74
2023/11/22 01:12:30;;;;;;;2.53;2.20;;;;;;;;;;526431;28;853;-71
2023/11/22 01:12:45;;;;;;;3.20;2.20;;;;;;;;;;526320;28;893;-70
2023/11/22 01:13:00;;;;;;;2.90;2.13;;;;;;;;;;526197;28;917;-70
2023/11/22 01:13:16;;;;;;;2.47;2.20;;;;;;;;;;526458;28;1083;-70
2023/11/22 01:13:40;;;;;;;2.47;2.27;;;;;;;;;;526242;28;1087;-71
2023/11/22 01:13:56;;;;;;;2.30;2.10;;;;;;;;;;523248;28;901;-70
2023/11/22 01:14:11;;;;;;;2.45;2.13;;;;;;;;;;523492;28;1138;-70
2023/11/22 01:14:27;;;;;;;3.00;2.30;;;;;;;;;;525032;28;1765;-71
2023/11/22 01:14:42;;;;;;;3.20;2.17;;;;;;;;;;526261;28;1116;-71
2023/11/22 01:14:58;;;;;;;3.00;2.20;;;;;;;;;;525686;28;838;-70
2023/11/22 01:15:13;;;;;;;2.90;2.17;;;;;;;;;;524481;28;1052;-70
2023/11/22 01:15:29;;;;;;;2.50;2.10;;;;;;;;;;529639;27;846;-70
2023/11/22 01:15:44;;;;;;;2.30;2.10;;;;;;;;;;526162;28;1452;-70
2023/11/22 01:15:59;;;;;;;2.50;2.30;;;;;;;;;;526270;28;799;-70
2023/11/22 01:16:15;;;;;;;2.70;2.30;;;;;;;;;;524395;28;1161;-70
2023/11/22 01:16:31;;;;;;;2.65;2.30;;;;;;;;;;526034;28;925;-70
2023/11/22 01:16:46;;;;;;;3.03;2.30;;;;;;;;;;524230;28;862;-70
2023/11/22 01:17:01;;;;;;;3.43;2.20;;;;;;;;;;524095;28;1098;-70
2023/11/22 01:17:17;;;;;;;3.10;2.10;;;;;;;;;;524789;28;1036;-70
2023/11/22 01:17:32;;;;;;;2.97;2.30;;;;;;;;;;526656;28;850;-70
2023/11/22 01:17:47;;;;;;;3.13;2.50;;;;;;;;;;528293;28;849;-70
2023/11/22 01:18:03;;;;;;;2.77;2.30;;;;;;;;;;525794;28;2183;-69
2023/11/22 01:18:18;;;;;;;2.95;2.30;;;;;;;;;;528135;27;909;-70
2023/11/22 01:18:34;;;;;;;3.17;2.27;;;;;;;;;;529519;27;877;-70
2023/11/22 01:18:50;;;;;;;2.75;2.28;;;;;;;;;;528176;28;998;-70
2023/11/22 01:19:05;;;;;;;2.65;2.20;;;;;;;;;;527341;28;759;-70
2023/11/22 01:19:20;;;;;;;3.90;2.27;;;;;;;;;;528815;27;1032;-70
2023/11/22 01:19:37;;;;;;;3.80;2.30;;;;;;;;;;530720;27;972;-70
2023/11/22 01:19:52;;;;;;;2.80;2.17;;;;;;;;;;530586;27;932;-70
2023/11/22 01:20:10;;;;;;;2.40;2.10;;;;;;;;;;529812;27;910;-70
2023/11/22 01:20:25;;;;;;;2.70;2.30;;;;;;;;;;530267;27;1027;-70
2023/11/22 01:20:41;;;;;;;3.10;2.40;;;;;;;;;;530661;27;1013;-70
2023/11/22 01:20:56;;;;;;;2.72;2.28;;;;;;;;;;528219;28;1284;-70
2023/11/22 01:21:11;;;;;;;2.53;2.27;;;;;;;;;;528077;28;928;-70
2023/11/22 01:21:27;;;;;;;2.80;2.38;;;;;;;;;;524192;28;811;-70
2023/11/22 01:21:42;;;;;;;2.67;2.33;;;;;;;;;;524249;28;850;-71
2023/11/22 01:21:57;;;;;;;2.57;2.23;;;;;;;;;;525466;28;1824;-72
2023/11/22 01:22:13;;;;;;;2.87;2.40;;;;;;;;;;524067;28;1319;-69
2023/11/22 01:22:28;;;;;;;2.78;2.40;;;;;;;;;;524199;28;965;-70
2023/11/22 01:22:43;;;;;;;2.87;2.37;;;;;;;;;;525154;28;1163;-71
2023/11/22 01:22:58;;;;;;;3.20;2.43;;;;;;;;;;526973;28;779;-69
2023/11/22 01:23:14;;;;;;;3.08;2.38;;;;;;;;;;526144;28;1074;-70
2023/11/22 01:23:32;;;;;;;3.53;2.30;;;;;;;;;;526127;28;1634;-70
2023/11/22 01:23:47;;;;;;;3.83;2.30;;;;;;;;;;521463;28;1904;-70
2023/11/22 01:24:03;;;;;;;3.30;2.33;;;;;;;;;;522589;28;842;-71
2023/11/22 01:24:18;;;;;;;2.72;2.38;;;;;;;;;;523755;28;1009;-70
2023/11/22 01:24:33;;;;;;;2.40;2.20;;;;;;;;;;526114;28;802;-70
2023/11/22 01:24:49;;;;;;;2.38;2.17;;;;;;;;;;522784;28;1239;-70
2023/11/22 01:25:05;;;;;;;2.50;2.30;;;;;;;;;;522058;28;933;-70
2023/11/22 01:25:20;;;;;;;2.80;2.50;;;;;;;;;;523190;28;1198;-70
2023/11/22 01:25:35;;;;;;;2.60;2.33;;;;;;;;;;522430;28;1317;-71
2023/11/22 01:25:51;;;;;;;2.40;2.20;;;;;;;;;;522705;28;1869;-70
2023/11/22 01:26:06;;;;;;;2.90;2.40;;;;;;;;;;520212;28;1100;-70
2023/11/22 01:26:21;;;;;;;2.97;2.30;;;;;;;;;;520769;28;1288;-70
2023/11/22 01:26:38;;;;;;;2.70;2.30;;;;;;;;;;520274;28;834;-70
2023/11/22 01:26:53;;;;;;;2.78;2.38;;;;;;;;;;522085;28;1296;-70
2023/11/22 01:27:09;;;;;;;2.77;2.47;;;;;;;;;;522140;28;1015;-70
2023/11/22 01:27:24;;;;;;;2.70;2.50;;;;;;;;;;522039;28;1099;-70
2023/11/22 01:27:39;;;;;;;2.80;2.50;;;;;;;;;;522048;28;850;-70
2023/11/22 01:27:54;;;;;;;2.70;2.40;;;;;;;;;;522512;28;859;-70
2023/11/22 01:28:11;;;;;;;2.92;2.25;;;;;;;;;;526602;28;977;-71
2023/11/22 01:28:27;;;;;;;3.30;2.40;;;;;;;;;;526327;28;1158;-70
2023/11/22 01:28:44;;;;;;;2.60;2.40;;;;;;;;;;528509;27;900;-70
2023/11/22 01:28:59;;;;;;;2.50;2.30;;;;;;;;;;528230;28;1673;-70
2023/11/22 01:29:15;;;;;;;2.60;2.30;;;;;;;;;;526308;28;1459;-70
2023/11/22 01:29:30;;;;;;;2.80;2.30;;;;;;;;;;526273;28;807;-70
2023/11/22 01:29:45;;;;;;;2.63;2.20;;;;;;;;;;524183;28;871;-71
2023/11/22 01:30:03;;;;;;;2.50;2.20;;;;;;;;;;524249;28;802;-70
2023/11/22 01:30:19;;;;;;;2.65;2.35;;;;;;;;;;525052;28;1161;-71
2023/11/22 01:30:34;;;;;;;2.83;2.40;;;;;;;;;;526201;28;885;-70
2023/11/22 01:30:49;;;;;;;2.70;2.30;;;;;;;;;;526763;28;878;-70
2023/11/22 01:31:04;;;;;;;2.93;2.20;;;;;;;;;;526124;28;1180;-70
2023/11/22 01:31:21;;;;;;;3.30;2.33;;;;;;;;;;525979;28;1242;-70
2023/11/22 01:31:36;;;;;;;3.80;2.40;;;;;;;;;;526760;28;1061;-70
2023/11/22 01:31:51;;;;;;;3.47;2.33;;;;;;;;;;525683;28;1413;-70
2023/11/22 01:32:07;;;;;;;4.85;2.30;;;;;;;;;;524160;28;862;-70
2023/11/22 01:32:22;;;;;;;5.13;2.50;;;;;;;;;;525532;28;1099;-71
2023/11/22 01:32:37;;;;;;;3.03;2.70;;;;;;;;;;526218;28;834;-70
2023/11/22 01:32:53;;;;;;;3.77;2.70;;;;;;;;;;526186;28;814;-70
2023/11/22 01:33:08;;;;;;;3.63;2.50;;;;;;;;;;522018;28;1791;-70
2023/11/22 01:33:23;;;;;;;2.80;2.50;;;;;;;;;;522426;28;1040;-70
2023/11/22 01:33:39;;;;;;;2.88;2.50;;;;;;;;;;519964;28;831;-71
2023/11/22 01:33:54;;;;;;;3.20;2.50;;;;;;;;;;521808;28;792;-70
2023/11/22 01:34:10;;;;;;;3.03;2.65;;;;;;;;;;521681;28;1853;-70
2023/11/22 01:34:25;;;;;;;2.75;2.40;;;;;;;;;;521883;28;1357;-70
2023/11/22 01:34:41;;;;;;;2.83;2.40;;;;;;;;;;520308;28;998;-70
2023/11/22 01:34:58;;;;;;;3.10;2.63;;;;;;;;;;519784;28;1388;-70
2023/11/22 01:35:14;;;;;;;3.53;2.72;;;;;;;;;;521180;28;1280;-71
2023/11/22 01:35:29;;;;;;;3.57;2.57;;;;;;;;;;524122;28;910;-69
2023/11/22 01:35:44;;;;;;;3.15;2.38;;;;;;;;;;524191;28;850;-70
2023/11/22 01:36:00;;;;;;;3.47;2.40;;;;;;;;;;524128;28;830;-70
2023/11/22 01:36:15;;;;;;;3.27;2.40;;;;;;;;;;521183;28;1128;-70
2023/11/22 01:36:31;;;;;;;2.80;2.50;;;;;;;;;;524251;28;822;-70
2023/11/22 01:36:50;;;;;;;3.08;2.58;;;;;;;;;;524824;28;926;-70
2023/11/22 01:37:05;;;;;;;3.33;2.70;;;;;;;;;;524569;28;1824;-70
2023/11/22 01:37:20;;;;;;;3.50;2.65;;;;;;;;;;527413;28;924;-70
2023/11/22 01:37:36;;;;;;;4.03;2.77;;;;;;;;;;526959;28;1255;-70
2023/11/22 01:37:51;;;;;;;3.53;2.70;;;;;;;;;;526168;28;886;-70